createdAt,value
2022-09-30T00:01:40.694Z,99720.66
2022-09-30T00:04:11.111Z,99724.34
2022-09-30T00:06:39.082Z,99721.00
2022-09-30T00:09:07.246Z,99723.22
2022-09-30T00:11:39.263Z,99721.19
2022-09-30T00:14:13.416Z,99720.63
2022-09-30T00:16:41.408Z,99719.50
2022-09-30T00:19:09.731Z,99718.78
2022-09-30T00:21:37.676Z,99720.25
2022-09-30T00:24:08.375Z,99718.19
2022-09-30T00:26:37.213Z,99720.41
2022-09-30T00:29:06.089Z,99720.59
2022-09-30T00:31:36.510Z,99726.44
2022-09-30T00:34:08.643Z,99718.53
2022-09-30T00:36:39.223Z,99717.97
2022-09-30T00:39:09.856Z,99722.38
2022-09-30T00:41:38.743Z,99719.78
2022-09-30T00:44:44.482Z,99727.13
2022-09-30T00:47:31.430Z,99736.91
2022-09-30T00:50:02.846Z,99726.75
2022-09-30T00:52:32.721Z,99720.84
2022-09-30T00:55:03.180Z,99725.97
2022-09-30T00:57:31.690Z,99728.00
2022-09-30T00:59:59.772Z,99725.97
2022-09-30T01:02:29.412Z,99723.38
2022-09-30T01:04:58.024Z,99724.13
2022-09-30T01:07:26.175Z,99722.84
2022-09-30T01:09:54.311Z,99726.16
2022-09-30T01:12:26.007Z,99724.28
2022-09-30T01:14:58.014Z,99725.78
2022-09-30T01:17:37.854Z,99730.41
2022-09-30T01:20:24.540Z,99736.53
2022-09-30T01:23:08.339Z,99739.28
2022-09-30T01:25:55.890Z,99743.72
2022-09-30T01:28:52.499Z,99748.88
2022-09-30T01:31:41.682Z,99741.16
2022-09-30T01:34:17.931Z,99743.72
2022-09-30T01:37:00.557Z,99744.06
2022-09-30T01:39:39.606Z,99745.19
2022-09-30T01:42:14.712Z,99744.47
2022-09-30T01:44:53.432Z,99742.63
2022-09-30T01:47:27.456Z,99747.44
2022-09-30T01:50:00.641Z,99745.59
2022-09-30T01:52:34.666Z,99756.31
2022-09-30T01:55:08.128Z,99763.13
2022-09-30T01:57:44.920Z,99760.38
2022-09-30T02:00:15.254Z,99758.88
2022-09-30T02:02:50.005Z,99762.56
2022-09-30T02:05:22.785Z,99758.53
2022-09-30T02:07:55.481Z,99763.50
2022-09-30T02:10:28.236Z,99759.44
2022-09-30T02:12:59.419Z,99762.78
2022-09-30T02:15:36.405Z,99764.41
2022-09-30T02:18:19.744Z,99759.66
2022-09-30T02:20:52.106Z,99761.50
2022-09-30T02:23:26.378Z,99765.94
2022-09-30T02:26:00.325Z,99767.59
2022-09-30T02:28:30.327Z,99761.91
2022-09-30T02:31:01.521Z,99757.09
2022-09-30T02:33:35.903Z,99756.38
2022-09-30T02:36:08.027Z,99759.88
2022-09-30T02:38:41.953Z,99764.09
2022-09-30T02:41:15.066Z,99770.38
2022-09-30T02:43:43.316Z,99765.56
2022-09-30T02:46:19.490Z,99774.78
2022-09-30T02:48:55.941Z,99780.47
2022-09-30T02:51:33.794Z,99780.66
2022-09-30T02:54:06.310Z,99786.19
2022-09-30T02:56:45.796Z,99787.69
2022-09-30T02:59:14.680Z,99793.94
2022-09-30T03:01:44.014Z,99790.81
2022-09-30T03:04:17.255Z,99805.38
2022-09-30T03:06:45.332Z,99808.50
2022-09-30T03:09:13.571Z,99804.84
2022-09-30T03:11:42.081Z,99803.91
2022-09-30T03:14:33.026Z,99798.22
2022-09-30T03:17:17.139Z,99795.63
2022-09-30T03:20:06.719Z,99796.38
2022-09-30T03:22:55.720Z,99804.34
2022-09-30T03:25:36.238Z,99806.72
2022-09-30T03:28:16.223Z,99809.69
2022-09-30T03:30:49.826Z,99802.16
2022-09-30T03:33:24.096Z,99802.16
2022-09-30T03:36:01.372Z,99809.69
2022-09-30T03:38:43.524Z,99810.28
2022-09-30T03:41:17.702Z,99820.94
2022-09-30T03:43:51.382Z,99814.13
2022-09-30T03:46:24.346Z,99821.28
2022-09-30T03:48:56.059Z,99813.56
2022-09-30T03:51:25.886Z,99812.63
2022-09-30T03:53:55.317Z,99809.69
2022-09-30T03:56:27.397Z,99801.97
2022-09-30T03:58:55.462Z,99815.00
2022-09-30T04:01:24.456Z,99819.75
2022-09-30T04:03:54.739Z,99820.13
2022-09-30T04:06:25.854Z,99828.59
2022-09-30T04:08:54.788Z,99832.63
2022-09-30T04:11:22.856Z,99837.22
2022-09-30T04:13:50.826Z,99832.63
2022-09-30T04:16:18.999Z,99844.94
2022-09-30T04:18:47.044Z,99841.59
2022-09-30T04:21:16.117Z,99844.34
2022-09-30T04:23:45.366Z,99846.56
2022-09-30T04:26:15.118Z,99845.97
2022-09-30T04:28:43.197Z,99846.22
2022-09-30T04:31:12.843Z,99845.06
2022-09-30T04:33:41.205Z,99850.19
2022-09-30T04:36:09.526Z,99850.13
2022-09-30T04:38:37.618Z,99860.03
2022-09-30T04:41:08.039Z,99862.34
2022-09-30T04:43:36.156Z,99868.63
2022-09-30T04:46:04.673Z,99876.13
2022-09-30T04:48:32.842Z,99875.38
2022-09-30T04:51:01.078Z,99877.00
2022-09-30T04:53:29.244Z,99882.50
2022-09-30T04:56:00.940Z,99887.56
2022-09-30T04:58:36.725Z,99885.25
2022-09-30T05:01:06.839Z,99880.97
2022-09-30T05:03:35.262Z,99888.09
2022-09-30T05:06:04.019Z,99888.88
2022-09-30T05:08:33.814Z,99893.06
2022-09-30T05:11:02.737Z,99897.13
2022-09-30T05:13:35.032Z,99894.91
2022-09-30T05:16:03.793Z,99900.06
2022-09-30T05:18:33.948Z,99902.06
2022-09-30T05:21:03.055Z,99894.75
2022-09-30T05:23:32.869Z,99898.78
2022-09-30T05:26:01.003Z,99899.69
2022-09-30T05:28:31.171Z,99909.41
2022-09-30T05:31:02.650Z,99907.72
2022-09-30T05:33:31.448Z,99919.81
2022-09-30T05:36:01.690Z,99921.28
2022-09-30T05:38:29.900Z,99922.44
2022-09-30T05:40:58.005Z,99925.19
2022-09-30T05:43:26.081Z,99933.25
2022-09-30T05:45:55.386Z,99936.22
2022-09-30T05:48:26.226Z,99940.22
2022-09-30T05:50:55.464Z,99940.63
2022-09-30T05:53:23.888Z,99961.41
2022-09-30T05:55:52.072Z,99967.84
2022-09-30T05:58:21.329Z,99978.47
2022-09-30T06:00:50.287Z,99987.59
2022-09-30T06:03:19.054Z,99995.97
2022-09-30T06:05:48.351Z,100000.09
2022-09-30T06:08:17.065Z,100002.94
2022-09-30T06:10:46.536Z,99988.91
2022-09-30T06:13:14.789Z,100000.00
2022-09-30T06:15:42.711Z,100000.19
2022-09-30T06:18:15.808Z,100002.16
2022-09-30T06:20:45.712Z,100007.72
2022-09-30T06:23:15.081Z,100011.09
2022-09-30T06:25:44.566Z,100006.41
2022-09-30T06:28:12.805Z,100004.91
2022-09-30T06:30:40.964Z,100009.03
2022-09-30T06:33:08.904Z,100011.31
2022-09-30T06:35:37.007Z,100017.13
2022-09-30T06:38:05.239Z,100022.31
2022-09-30T06:40:34.647Z,100019.28
2022-09-30T06:43:03.146Z,100024.63
2022-09-30T06:45:33.288Z,100028.22
2022-09-30T06:48:02.930Z,100027.69
2022-09-30T06:50:31.738Z,100029.41
2022-09-30T06:53:00.135Z,100036.47
2022-09-30T06:55:28.580Z,100040.78
2022-09-30T06:57:58.456Z,100048.75
2022-09-30T07:00:28.599Z,100047.00
2022-09-30T07:02:56.818Z,100051.06
2022-09-30T07:05:26.390Z,100050.94
2022-09-30T07:07:55.000Z,100044.19
2022-09-30T07:10:23.137Z,100044.78
2022-09-30T07:12:51.935Z,100041.47
2022-09-30T07:15:22.086Z,100044.03
2022-09-30T07:17:53.389Z,100047.00
2022-09-30T07:20:21.378Z,100056.16
2022-09-30T07:22:49.257Z,100057.84
2022-09-30T07:25:17.951Z,100065.47
2022-09-30T07:27:46.719Z,100065.78
2022-09-30T07:30:23.969Z,100065.91
2022-09-30T07:32:55.526Z,100064.34
2022-09-30T07:35:23.599Z,100074.31
2022-09-30T07:37:51.606Z,100083.91
2022-09-30T07:40:19.588Z,100094.19
2022-09-30T07:42:47.522Z,100085.72
2022-09-30T07:45:16.904Z,100085.72
2022-09-30T07:47:46.639Z,100085.91
2022-09-30T07:50:19.113Z,100087.94
2022-09-30T07:52:47.113Z,100082.59
2022-09-30T07:55:15.263Z,100090.75
2022-09-30T07:57:43.243Z,100087.63
2022-09-30T08:00:40.506Z,100098.69
2022-09-30T08:03:00.151Z,100105.69
2022-09-30T08:05:29.482Z,100114.34
2022-09-30T08:07:57.497Z,100109.41
2022-09-30T08:10:25.500Z,100107.72
2022-09-30T08:12:56.057Z,100097.91
2022-09-30T08:15:27.118Z,100097.72
2022-09-30T08:17:55.187Z,100108.75
2022-09-30T08:20:23.218Z,100112.50
2022-09-30T08:22:54.911Z,100109.72
2022-09-30T08:25:23.301Z,100114.34
2022-09-30T08:27:51.912Z,100119.25
2022-09-30T08:30:19.768Z,100122.00
2022-09-30T08:32:47.671Z,100124.75
2022-09-30T08:35:15.667Z,100128.38
2022-09-30T08:37:43.713Z,100127.06
2022-09-30T08:40:20.977Z,100132.63
2022-09-30T08:43:10.133Z,100143.63
2022-09-30T08:45:52.312Z,100151.44
2022-09-30T08:48:33.970Z,100139.84
2022-09-30T08:51:15.874Z,100144.25
2022-09-30T08:53:47.407Z,100134.44
2022-09-30T08:56:23.219Z,100134.59
2022-09-30T08:58:57.956Z,100130.19
2022-09-30T09:01:32.811Z,100124.88
2022-09-30T09:04:03.604Z,100122.47
2022-09-30T09:06:38.446Z,100110.69
2022-09-30T09:09:37.015Z,100109.19
2022-09-30T09:12:15.546Z,100112.53
2022-09-30T09:14:56.903Z,100122.13
2022-09-30T09:17:37.909Z,100118.03
2022-09-30T09:20:14.389Z,100118.13
2022-09-30T09:22:44.369Z,100110.97
2022-09-30T09:25:15.464Z,100113.00
2022-09-30T09:27:52.534Z,100115.22
2022-09-30T09:30:22.887Z,100116.97
2022-09-30T09:32:55.174Z,100134.66
2022-09-30T09:35:34.968Z,100133.75
2022-09-30T09:38:26.320Z,100129.34
2022-09-30T09:41:08.968Z,100121.03
2022-09-30T09:43:51.287Z,100121.03
2022-09-30T09:46:26.045Z,100127.22
2022-09-30T09:49:29.704Z,100129.00
2022-09-30T09:52:24.145Z,100130.88
2022-09-30T09:54:56.596Z,100137.22
2022-09-30T09:57:27.763Z,100132.31
2022-09-30T10:02:34.331Z,100142.22
2022-09-30T10:05:03.850Z,100139.94
2022-09-30T10:07:33.657Z,100143.66
2022-09-30T10:10:13.498Z,100144.28
2022-09-30T10:12:42.473Z,100138.94
2022-09-30T10:15:22.184Z,100143.06
2022-09-30T10:17:54.045Z,100137.56
2022-09-30T10:20:28.814Z,100135.50
2022-09-30T10:23:10.108Z,100134.97
2022-09-30T10:25:38.124Z,100139.56
2022-09-30T10:28:24.903Z,100134.88
2022-09-30T10:30:58.008Z,100123.63
2022-09-30T10:33:31.880Z,100132.78
2022-09-30T10:36:14.669Z,100134.81
2022-09-30T10:39:04.099Z,100130.56
2022-09-30T10:41:37.841Z,100122.22
2022-09-30T10:44:13.368Z,100125.75
2022-09-30T10:46:45.591Z,100121.53
2022-09-30T10:49:32.118Z,100123.88
2022-09-30T10:52:05.055Z,100125.31
2022-09-30T10:54:47.002Z,100125.72
2022-09-30T10:57:17.104Z,100117.56
2022-09-30T10:59:46.654Z,100125.97
2022-09-30T11:02:26.051Z,100108.78
2022-09-30T11:05:03.740Z,100112.78
2022-09-30T11:07:40.559Z,100116.16
2022-09-30T11:10:23.637Z,100115.69
2022-09-30T11:13:01.074Z,100106.69
2022-09-30T11:15:32.863Z,100112.28
2022-09-30T11:18:08.347Z,100106.06
2022-09-30T11:20:41.929Z,100111.97
2022-09-30T11:23:20.473Z,100124.59
2022-09-30T11:25:55.068Z,100120.38
2022-09-30T11:28:44.050Z,100116.53
2022-09-30T11:31:23.306Z,100107.16
2022-09-30T11:34:06.602Z,100110.59
2022-09-30T11:36:43.173Z,100119.06
2022-09-30T11:39:27.022Z,100112.66
2022-09-30T11:42:02.113Z,100109.00
2022-09-30T11:44:35.367Z,100115.34
2022-09-30T11:47:24.382Z,100116.91
2022-09-30T11:50:16.177Z,100106.81
2022-09-30T11:52:56.528Z,100113.03
2022-09-30T11:55:38.259Z,100107.50
2022-09-30T11:58:29.022Z,100105.03
2022-09-30T12:01:08.789Z,100106.31
2022-09-30T12:03:43.356Z,100109.13
2022-09-30T12:06:19.358Z,100112.09
2022-09-30T12:08:52.864Z,100110.72
2022-09-30T12:11:28.743Z,100109.72
2022-09-30T12:14:01.939Z,100115.25
2022-09-30T12:16:33.150Z,100109.13
2022-09-30T12:19:12.704Z,100123.75
2022-09-30T12:21:50.868Z,100119.22
2022-09-30T12:24:26.406Z,100118.75
2022-09-30T12:26:55.300Z,100123.25
2022-09-30T12:29:47.589Z,100118.66
2022-09-30T12:33:10.710Z,100121.56
2022-09-30T12:36:02.766Z,100120.06
2022-09-30T12:38:49.652Z,100122.25
2022-09-30T12:41:39.049Z,100126.13
2022-09-30T12:44:18.745Z,100118.63
2022-09-30T12:46:55.719Z,100118.28
2022-09-30T12:49:27.681Z,100118.50
2022-09-30T12:51:58.095Z,100135.81
2022-09-30T12:54:32.040Z,100124.25
2022-09-30T12:57:03.841Z,100121.53
2022-09-30T12:59:34.918Z,100122.41
2022-09-30T13:02:06.208Z,100118.41
2022-09-30T13:04:36.638Z,100116.53
2022-09-30T13:07:14.465Z,100112.41
2022-09-30T13:10:03.331Z,100123.97
2022-09-30T13:12:43.118Z,100122.50
2022-09-30T13:15:40.103Z,100121.31
2022-09-30T13:18:46.073Z,100121.94
2022-09-30T13:21:24.797Z,100128.31
2022-09-30T13:23:54.581Z,100134.25
2022-09-30T13:26:37.413Z,100130.59
2022-09-30T13:29:48.390Z,100133.75
2022-09-30T13:32:33.782Z,100130.97
2022-09-30T13:35:02.026Z,100128.31
2022-09-30T13:37:37.746Z,100115.94
2022-09-30T13:40:14.006Z,100118.53
2022-09-30T13:42:51.420Z,100123.47
2022-09-30T13:45:24.347Z,100123.91
2022-09-30T13:48:03.455Z,100122.31
2022-09-30T13:50:34.460Z,100130.47
2022-09-30T13:53:06.760Z,100128.88
2022-09-30T13:55:41.062Z,100133.91
2022-09-30T13:58:30.131Z,100122.13
2022-09-30T14:01:04.243Z,100126.75
2022-09-30T14:03:50.192Z,100120.25
2022-09-30T14:06:32.135Z,100121.09
2022-09-30T14:09:41.072Z,100122.16
2022-09-30T14:12:23.080Z,100111.50
2022-09-30T14:15:18.091Z,100119.00
2022-09-30T14:18:09.602Z,100113.28
2022-09-30T14:20:49.529Z,100103.63
2022-09-30T14:23:20.157Z,100101.31
2022-09-30T14:25:57.816Z,100101.09
2022-09-30T14:28:34.605Z,100109.63
2022-09-30T14:31:13.048Z,100104.06
2022-09-30T14:33:42.605Z,100104.50
2022-09-30T14:36:15.650Z,100110.72
2022-09-30T14:38:46.936Z,100103.31
2022-09-30T14:41:20.697Z,100099.03
2022-09-30T14:43:52.802Z,100112.72
2022-09-30T14:46:30.513Z,100108.00
2022-09-30T14:49:04.430Z,100106.69
2022-09-30T14:51:38.350Z,100120.91
2022-09-30T14:54:16.451Z,100103.88
2022-09-30T14:56:44.934Z,100110.53
2022-09-30T14:59:18.762Z,100106.72
2022-09-30T15:01:51.213Z,100110.19
2022-09-30T15:04:22.994Z,100108.06
2022-09-30T15:06:53.051Z,100106.66
2022-09-30T15:09:24.770Z,100105.38
2022-09-30T15:11:52.900Z,100098.59
2022-09-30T15:14:23.252Z,100106.00
2022-09-30T15:16:54.345Z,100100.78
2022-09-30T15:19:25.270Z,100100.50
2022-09-30T15:21:55.747Z,100101.91
2022-09-30T15:24:27.235Z,100101.66
2022-09-30T15:26:57.087Z,100095.25
2022-09-30T15:29:24.998Z,100089.56
2022-09-30T15:32:01.090Z,100097.50
2022-09-30T15:34:30.405Z,100088.38
2022-09-30T15:37:06.266Z,100080.63
2022-09-30T15:39:54.978Z,100082.13
2022-09-30T15:42:32.147Z,100081.97
2022-09-30T15:45:00.276Z,100085.19
2022-09-30T15:47:29.867Z,100084.91
2022-09-30T15:49:58.029Z,100086.13
2022-09-30T15:52:36.605Z,100086.25
2022-09-30T15:55:36.655Z,100078.97
2022-09-30T15:58:05.483Z,100070.66
2022-09-30T16:00:39.969Z,100071.94
2022-09-30T16:03:27.752Z,100076.00
2022-09-30T16:06:07.033Z,100073.84
2022-09-30T16:08:42.522Z,100071.06
2022-09-30T16:11:10.969Z,100069.53
2022-09-30T16:13:45.228Z,100067.03
2022-09-30T16:16:21.371Z,100069.13
2022-09-30T16:18:51.960Z,100072.88
2022-09-30T16:21:40.459Z,100079.06
2022-09-30T16:24:44.904Z,100077.94
2022-09-30T16:27:26.083Z,100069.94
2022-09-30T16:29:54.092Z,100067.38
2022-09-30T16:32:22.576Z,100077.22
2022-09-30T16:34:52.013Z,100081.19
2022-09-30T16:37:22.066Z,100073.91
2022-09-30T16:39:50.605Z,100067.16
2022-09-30T16:42:20.145Z,100069.03
2022-09-30T16:44:48.086Z,100070.06
2022-09-30T16:47:17.535Z,100071.84
2022-09-30T16:49:47.180Z,100073.56
2022-09-30T16:52:17.326Z,100082.31
2022-09-30T16:54:45.428Z,100073.81
2022-09-30T16:57:15.882Z,100077.72
2022-09-30T16:59:44.542Z,100083.53
2022-09-30T17:02:15.497Z,100088.75
2022-09-30T17:04:45.291Z,100091.16
2022-09-30T17:07:17.583Z,100087.25
2022-09-30T17:09:45.511Z,100086.16
2022-09-30T17:12:13.833Z,100080.63
2022-09-30T17:14:43.686Z,100084.19
2022-09-30T17:17:13.730Z,100095.44
2022-09-30T17:19:42.509Z,100094.88
2022-09-30T17:22:10.439Z,100092.25
2022-09-30T17:24:39.651Z,100097.38
2022-09-30T17:27:07.773Z,100097.72
2022-09-30T17:29:41.787Z,100107.28
2022-09-30T17:32:10.556Z,100099.28
2022-09-30T17:34:38.933Z,100104.75
2022-09-30T17:39:36.059Z,100108.75
2022-09-30T17:42:23.018Z,100111.00
2022-09-30T17:44:52.400Z,100107.75
2022-09-30T17:47:21.254Z,100112.22
2022-09-30T17:49:49.401Z,100112.81
2022-09-30T17:52:18.101Z,100116.94
2022-09-30T17:54:51.101Z,100126.47
2022-09-30T17:57:22.037Z,100115.41
2022-09-30T17:59:50.132Z,100125.94
2022-09-30T18:02:18.354Z,100129.94
2022-09-30T18:04:46.524Z,100127.41
2022-09-30T18:07:14.484Z,100133.34
2022-09-30T18:09:42.424Z,100142.22
2022-09-30T18:12:10.398Z,100136.16
2022-09-30T18:14:39.672Z,100146.34
2022-09-30T18:17:07.727Z,100145.44
2022-09-30T18:19:36.113Z,100151.94
2022-09-30T18:22:04.214Z,100159.00
2022-09-30T18:24:50.154Z,100153.84
2022-09-30T18:27:21.036Z,100154.47
2022-09-30T18:29:50.558Z,100161.09
2022-09-30T18:32:18.509Z,100171.41
2022-09-30T18:34:46.596Z,100161.09
2022-09-30T18:37:14.576Z,100158.31
2022-09-30T18:39:42.560Z,100164.06
2022-09-30T18:42:10.539Z,100163.38
2022-09-30T18:44:38.519Z,100163.53
2022-09-30T18:47:07.874Z,100163.91
2022-09-30T18:49:36.049Z,100162.97
2022-09-30T18:52:04.995Z,100158.56
2022-09-30T18:54:33.638Z,100165.38
2022-09-30T18:57:01.997Z,100162.41
2022-09-30T18:59:30.065Z,100159.84
2022-09-30T19:01:59.639Z,100148.03
2022-09-30T19:04:29.028Z,100146.44
2022-09-30T19:06:57.143Z,100144.97
2022-09-30T19:09:26.539Z,100143.88
2022-09-30T19:11:55.513Z,100136.50
2022-09-30T19:14:24.557Z,100148.50
2022-09-30T19:16:52.853Z,100153.09
2022-09-30T19:19:23.095Z,100148.63
2022-09-30T19:21:52.849Z,100142.72
2022-09-30T19:24:25.322Z,100146.22
2022-09-30T19:26:55.568Z,100147.84
2022-09-30T19:29:23.512Z,100141.75
2022-09-30T19:31:51.673Z,100152.44
2022-09-30T19:34:30.880Z,100146.53
2022-09-30T19:37:01.651Z,100160.72
2022-09-30T19:39:41.549Z,100161.78
2022-09-30T19:42:12.702Z,100158.25
2022-09-30T19:44:41.819Z,100155.66
2022-09-30T19:47:09.930Z,100145.88
2022-09-30T19:49:38.018Z,100144.75
2022-09-30T19:52:18.470Z,100143.47
2022-09-30T19:54:48.330Z,100153.03
2022-09-30T19:57:16.352Z,100154.84
2022-09-30T19:59:45.034Z,100158.91
2022-09-30T20:02:13.092Z,100155.22
2022-09-30T20:04:43.703Z,100162.56
2022-09-30T20:07:14.882Z,100165.88
2022-09-30T20:09:43.596Z,100162.19
2022-09-30T20:12:11.747Z,100161.25
2022-09-30T20:14:57.495Z,100163.28
2022-09-30T20:17:25.493Z,100172.09
2022-09-30T20:20:07.391Z,100163.63
2022-09-30T20:22:36.789Z,100169.16
2022-09-30T20:25:05.628Z,100171.13
2022-09-30T20:27:33.631Z,100161.53
2022-09-30T20:30:01.755Z,100168.69
2022-09-30T20:32:31.152Z,100175.09
2022-09-30T20:34:59.267Z,100176.16
2022-09-30T20:37:27.243Z,100174.84
2022-09-30T20:39:57.590Z,100176.66
2022-09-30T20:42:28.143Z,100184.94
2022-09-30T20:45:01.001Z,100173.91
2022-09-30T20:47:28.916Z,100168.75
2022-09-30T20:49:58.377Z,100174.22
2022-09-30T20:52:26.949Z,100170.53
2022-09-30T20:55:00.333Z,100174.19
2022-09-30T20:57:29.754Z,100185.00
2022-09-30T20:59:58.363Z,100188.66
2022-09-30T21:02:27.999Z,100198.44
2022-09-30T21:04:57.699Z,100210.19
2022-09-30T21:07:26.357Z,100221.22
2022-09-30T21:09:55.751Z,100215.84
2022-09-30T21:12:23.774Z,100223.31
2022-09-30T21:14:51.665Z,100236.00
2022-09-30T21:17:19.650Z,100229.56
2022-09-30T21:19:47.568Z,100237.66
2022-09-30T21:22:17.090Z,100228.97
2022-09-30T21:24:45.152Z,100226.72
2022-09-30T21:27:14.703Z,100223.44
2022-09-30T21:29:43.584Z,100220.88
2022-09-30T21:32:11.625Z,100222.91
2022-09-30T21:34:39.715Z,100212.81
2022-09-30T21:37:07.899Z,100213.47
2022-09-30T21:39:35.806Z,100201.25
2022-09-30T21:42:04.622Z,100194.28
2022-09-30T21:44:33.870Z,100187.09
2022-09-30T21:47:01.871Z,100196.44
2022-09-30T21:49:29.802Z,100193.63
2022-09-30T21:51:57.751Z,100186.56
2022-09-30T21:54:25.721Z,100186.72
2022-09-30T21:56:53.708Z,100175.28
2022-09-30T21:59:21.670Z,100179.13
2022-09-30T22:01:52.518Z,100181.34
2022-09-30T22:04:20.517Z,100181.88
2022-09-30T22:06:48.477Z,100174.53
2022-09-30T22:09:16.858Z,100181.72
2022-09-30T22:11:44.872Z,100167.63
2022-09-30T22:14:12.961Z,100169.09
2022-09-30T22:16:40.929Z,100167.66
2022-09-30T22:19:10.242Z,100178.03
2022-09-30T22:21:38.562Z,100172.72
2022-09-30T22:24:07.962Z,100168.50
2022-09-30T22:26:37.011Z,100176.47
2022-09-30T22:29:07.502Z,100164.34
2022-09-30T22:31:35.874Z,100165.75
2022-09-30T22:34:23.500Z,100166.50
2022-09-30T22:37:10.753Z,100172.63
2022-09-30T22:39:38.770Z,100167.88
2022-09-30T22:42:07.202Z,100175.06
2022-09-30T22:44:38.154Z,100173.09
2022-09-30T22:47:09.374Z,100178.44
2022-09-30T22:49:37.291Z,100174.22
2022-09-30T22:52:07.082Z,100170.94
2022-09-30T22:54:36.157Z,100166.72
2022-09-30T22:57:07.659Z,100165.06
2022-09-30T22:59:36.234Z,100159.38
2022-09-30T23:02:05.043Z,100161.97
2022-09-30T23:04:33.349Z,100164.59
2022-09-30T23:07:01.212Z,100165.53
2022-09-30T23:09:31.118Z,100161.66
2022-09-30T23:11:59.118Z,100167.59
2022-09-30T23:14:27.062Z,100162.22
2022-09-30T23:16:55.307Z,100160.56
2022-09-30T23:19:23.262Z,100169.25
2022-09-30T23:21:51.160Z,100164.44
2022-09-30T23:24:19.426Z,100161.88
2022-09-30T23:26:49.747Z,100165.38
2022-09-30T23:29:17.810Z,100171.63
2022-09-30T23:31:45.877Z,100158.03
2022-09-30T23:34:14.108Z,100160.97
2022-09-30T23:36:42.045Z,100156.56
2022-09-30T23:39:18.098Z,100160.06
2022-09-30T23:41:46.401Z,100163.53
2022-09-30T23:44:17.742Z,100160.78
2022-09-30T23:47:05.762Z,100160.28
2022-09-30T23:49:35.228Z,100160.47
2022-09-30T23:52:04.774Z,100160.28
2022-09-30T23:54:32.919Z,100154.56
2022-09-30T23:57:01.293Z,100148.50
2022-09-30T23:59:31.106Z,100154.56
